createdAt,value
2017-12-28T00:00:46.035Z,980.76
2017-12-28T00:01:46.027Z,980.80
2017-12-28T00:02:46.160Z,980.79
2017-12-28T00:03:46.033Z,980.75
2017-12-28T00:04:46.004Z,980.76
2017-12-28T00:05:46.110Z,980.79
2017-12-28T00:06:45.997Z,980.78
2017-12-28T00:07:45.971Z,980.81
2017-12-28T00:08:45.976Z,980.80
2017-12-28T00:09:45.969Z,980.80
2017-12-28T00:10:45.960Z,980.82
2017-12-28T00:11:46.258Z,980.81
2017-12-28T00:12:46.241Z,980.82
2017-12-28T00:13:45.939Z,980.83
2017-12-28T00:14:45.936Z,980.84
2017-12-28T00:15:46.040Z,980.85
2017-12-28T00:16:45.918Z,980.80
2017-12-28T00:17:45.911Z,980.82
2017-12-28T00:18:45.903Z,980.83
2017-12-28T00:19:45.894Z,980.85
2017-12-28T00:20:45.891Z,980.82
2017-12-28T00:21:45.882Z,980.85
2017-12-28T00:22:46.068Z,980.86
2017-12-28T00:23:45.866Z,980.94
2017-12-28T00:24:45.860Z,980.89
2017-12-28T00:25:45.852Z,980.95
2017-12-28T00:26:45.853Z,980.92
2017-12-28T00:27:45.838Z,980.98
2017-12-28T00:28:45.831Z,980.97
2017-12-28T00:29:45.831Z,981.01
2017-12-28T00:30:45.816Z,980.99
2017-12-28T00:31:45.809Z,980.99
2017-12-28T00:32:45.801Z,981.00
2017-12-28T00:33:45.952Z,981.00
2017-12-28T00:34:45.787Z,981.02
2017-12-28T00:35:45.780Z,981.02
2017-12-28T00:36:46.176Z,981.04
2017-12-28T00:37:45.765Z,981.06
2017-12-28T00:38:45.762Z,981.06
2017-12-28T00:39:45.751Z,981.03
2017-12-28T00:40:45.745Z,981.03
2017-12-28T00:41:45.863Z,981.07
2017-12-28T00:42:45.730Z,981.07
2017-12-28T00:43:45.722Z,981.09
2017-12-28T00:44:45.819Z,981.10
2017-12-28T00:45:45.792Z,981.11
2017-12-28T00:46:45.707Z,981.12
2017-12-28T00:47:45.694Z,981.13
2017-12-28T00:48:45.686Z,981.07
2017-12-28T00:49:45.679Z,981.10
2017-12-28T00:50:45.677Z,981.10
2017-12-28T00:51:45.664Z,981.09
2017-12-28T00:52:45.657Z,981.14
2017-12-28T00:53:45.650Z,981.16
2017-12-28T00:54:45.641Z,981.17
2017-12-28T00:55:45.787Z,981.19
2017-12-28T00:56:45.707Z,981.20
2017-12-28T00:57:45.620Z,981.23
2017-12-28T00:58:45.613Z,981.23
2017-12-28T00:59:45.604Z,981.24
2017-12-28T01:00:45.820Z,981.25
2017-12-28T01:01:45.592Z,981.26
2017-12-28T01:02:45.583Z,981.25
2017-12-28T01:03:45.576Z,981.31
2017-12-28T01:04:45.566Z,981.36
2017-12-28T01:05:45.561Z,981.33
2017-12-28T01:06:45.781Z,981.35
2017-12-28T01:07:45.546Z,981.37
2017-12-28T01:08:45.538Z,981.39
2017-12-28T01:09:45.530Z,981.45
2017-12-28T01:10:45.522Z,981.46
2017-12-28T01:11:45.515Z,981.48
2017-12-28T01:12:45.509Z,981.56
2017-12-28T01:13:45.701Z,981.54
2017-12-28T01:14:45.503Z,981.54
2017-12-28T01:15:45.485Z,981.60
2017-12-28T01:16:45.478Z,981.65
2017-12-28T01:17:45.471Z,981.68
2017-12-28T01:18:45.464Z,981.67
2017-12-28T01:19:45.457Z,981.67
2017-12-28T01:20:45.450Z,981.67
2017-12-28T01:21:45.440Z,981.69
2017-12-28T01:22:45.434Z,981.77
2017-12-28T01:23:45.425Z,981.77
2017-12-28T01:24:45.420Z,981.78
2017-12-28T01:25:45.815Z,981.79
2017-12-28T01:26:45.536Z,981.80
2017-12-28T01:27:45.401Z,981.80
2017-12-28T01:28:45.389Z,981.80
2017-12-28T01:29:45.385Z,981.84
2017-12-28T01:30:45.381Z,981.84
2017-12-28T01:31:45.367Z,981.87
2017-12-28T01:32:45.359Z,981.86
2017-12-28T01:33:45.352Z,981.86
2017-12-28T01:34:45.344Z,981.90
2017-12-28T01:35:45.394Z,981.86
2017-12-28T01:36:45.331Z,981.88
2017-12-28T01:37:45.346Z,981.84
2017-12-28T01:38:45.454Z,981.91
2017-12-28T01:39:45.298Z,981.90
2017-12-28T01:40:45.301Z,981.86
2017-12-28T01:41:45.293Z,981.89
2017-12-28T01:42:45.276Z,981.91
2017-12-28T01:43:45.268Z,981.94
2017-12-28T01:44:45.270Z,981.97
2017-12-28T01:45:45.263Z,981.98
2017-12-28T01:46:45.254Z,981.99
2017-12-28T01:47:45.247Z,981.98
2017-12-28T01:48:45.248Z,981.98
2017-12-28T01:49:45.424Z,981.97
2017-12-28T01:50:45.222Z,981.95
2017-12-28T01:51:45.310Z,981.95
2017-12-28T01:52:45.212Z,981.98
2017-12-28T01:53:45.204Z,981.98
2017-12-28T01:54:45.457Z,981.98
2017-12-28T01:55:45.287Z,982.02
2017-12-28T01:56:45.191Z,982.00
2017-12-28T01:57:45.175Z,982.04
2017-12-28T01:58:45.168Z,982.01
2017-12-28T01:59:45.159Z,982.04
2017-12-28T02:00:45.188Z,982.06
2017-12-28T02:01:45.218Z,982.06
2017-12-28T02:02:45.141Z,982.03
2017-12-28T02:03:45.129Z,982.08
2017-12-28T02:04:45.124Z,982.08
2017-12-28T02:05:45.106Z,982.10
2017-12-28T02:06:45.105Z,982.05
2017-12-28T02:07:45.100Z,982.06
2017-12-28T02:08:45.096Z,982.08
2017-12-28T02:09:45.144Z,982.15
2017-12-28T02:10:45.079Z,982.14
2017-12-28T02:11:45.071Z,982.13
2017-12-28T02:12:45.067Z,982.14
2017-12-28T02:13:45.266Z,982.10
2017-12-28T02:14:45.048Z,982.17
2017-12-28T02:15:45.046Z,982.13
2017-12-28T02:16:45.035Z,982.16
2017-12-28T02:17:45.026Z,982.19
2017-12-28T02:18:45.020Z,982.23
2017-12-28T02:19:45.012Z,982.25
2017-12-28T02:20:45.004Z,982.23
2017-12-28T02:21:44.996Z,982.26
2017-12-28T02:22:44.987Z,982.24
2017-12-28T02:23:44.979Z,982.24
2017-12-28T02:24:44.973Z,982.20
2017-12-28T02:25:44.968Z,982.22
2017-12-28T02:26:44.958Z,982.21
2017-12-28T02:27:44.987Z,982.24
2017-12-28T02:28:45.678Z,982.22
2017-12-28T02:29:44.939Z,982.20
2017-12-28T02:30:44.931Z,982.21
2017-12-28T02:31:44.920Z,982.19
2017-12-28T02:32:44.981Z,982.21
2017-12-28T02:33:44.908Z,982.17
2017-12-28T02:34:44.898Z,982.18
2017-12-28T02:35:44.890Z,982.26
2017-12-28T02:36:44.883Z,982.23
2017-12-28T02:37:44.876Z,982.26
2017-12-28T02:38:44.868Z,982.32
2017-12-28T02:39:44.860Z,982.30
2017-12-28T02:40:44.852Z,982.32
2017-12-28T02:41:44.835Z,982.32
2017-12-28T02:42:44.836Z,982.34
2017-12-28T02:43:44.831Z,982.35
2017-12-28T02:44:44.826Z,982.36
2017-12-28T02:45:44.859Z,982.35
2017-12-28T02:46:44.921Z,982.41
2017-12-28T02:47:45.223Z,982.42
2017-12-28T02:48:44.791Z,982.50
2017-12-28T02:49:44.784Z,982.46
2017-12-28T02:50:44.776Z,982.51
2017-12-28T02:51:44.805Z,982.54
2017-12-28T02:52:44.763Z,982.54
2017-12-28T02:53:44.753Z,982.53
2017-12-28T02:54:44.744Z,982.53
2017-12-28T02:55:44.742Z,982.51
2017-12-28T02:56:44.731Z,982.52
2017-12-28T02:57:44.721Z,982.51
2017-12-28T02:58:45.566Z,982.46
2017-12-28T02:59:44.706Z,982.52
2017-12-28T03:00:44.698Z,982.51
2017-12-28T03:01:44.818Z,982.51
2017-12-28T03:02:44.754Z,982.55
2017-12-28T03:03:44.676Z,982.52
2017-12-28T03:04:45.109Z,982.60
2017-12-28T03:05:45.714Z,982.58
2017-12-28T03:06:44.651Z,982.64
2017-12-28T03:07:44.644Z,982.62
2017-12-28T03:08:44.637Z,982.63
2017-12-28T03:09:44.629Z,982.70
2017-12-28T03:10:44.624Z,982.71
2017-12-28T03:11:44.613Z,982.72
2017-12-28T03:12:44.617Z,982.73
2017-12-28T03:13:44.600Z,982.77
2017-12-28T03:14:44.719Z,982.74
2017-12-28T03:15:44.589Z,982.80
2017-12-28T03:16:44.573Z,982.85
2017-12-28T03:17:44.567Z,982.83
2017-12-28T03:18:44.556Z,982.90
2017-12-28T03:19:44.548Z,982.92
2017-12-28T03:20:44.541Z,982.98
2017-12-28T03:21:44.532Z,982.98
2017-12-28T03:22:44.742Z,982.98
2017-12-28T03:23:44.519Z,983.06
2017-12-28T03:24:44.609Z,983.04
2017-12-28T03:25:44.501Z,983.16
2017-12-28T03:26:44.520Z,983.10
2017-12-28T03:27:44.485Z,983.15
2017-12-28T03:28:44.476Z,983.16
2017-12-28T03:29:44.473Z,983.16
2017-12-28T03:30:44.460Z,983.22
2017-12-28T03:31:44.451Z,983.20
2017-12-28T03:32:44.444Z,983.22
2017-12-28T03:33:44.437Z,983.24
2017-12-28T03:34:44.437Z,983.30
2017-12-28T03:35:44.549Z,983.29
2017-12-28T03:36:44.627Z,983.31
2017-12-28T03:37:44.403Z,983.25
2017-12-28T03:38:44.394Z,983.30
2017-12-28T03:39:44.387Z,983.28
2017-12-28T03:40:44.370Z,983.33
2017-12-28T03:41:44.370Z,983.37
2017-12-28T03:42:44.361Z,983.36
2017-12-28T03:43:44.366Z,983.34
2017-12-28T03:44:44.372Z,983.36
2017-12-28T03:45:44.336Z,983.35
2017-12-28T03:46:44.882Z,983.34
2017-12-28T03:47:44.452Z,983.44
2017-12-28T03:48:44.313Z,983.39
2017-12-28T03:49:44.300Z,983.46
2017-12-28T03:50:44.293Z,983.43
2017-12-28T03:51:44.273Z,983.50
2017-12-28T03:52:44.275Z,983.47
2017-12-28T03:53:44.266Z,983.47
2017-12-28T03:54:44.256Z,983.55
2017-12-28T03:55:44.249Z,983.54
2017-12-28T03:56:44.240Z,983.56
2017-12-28T03:57:44.421Z,983.62
2017-12-28T03:58:44.221Z,983.61
2017-12-28T03:59:44.218Z,983.65
2017-12-28T04:00:44.205Z,983.64
2017-12-28T04:01:44.196Z,983.72
2017-12-28T04:02:44.199Z,983.71
2017-12-28T04:03:44.178Z,983.80
2017-12-28T04:04:44.189Z,983.78
2017-12-28T04:05:44.671Z,983.84
2017-12-28T04:06:44.151Z,983.87
2017-12-28T04:07:44.142Z,983.93
2017-12-28T04:08:44.136Z,983.90
2017-12-28T04:09:44.126Z,983.90
2017-12-28T04:10:44.117Z,983.97
2017-12-28T04:11:44.301Z,983.94
2017-12-28T04:12:44.108Z,984.00
2017-12-28T04:13:44.092Z,984.06
2017-12-28T04:14:44.084Z,984.10
2017-12-28T04:15:44.075Z,984.19
2017-12-28T04:16:44.067Z,984.17
2017-12-28T04:17:44.062Z,984.18
2017-12-28T04:18:44.049Z,984.25
2017-12-28T04:19:44.647Z,984.25
2017-12-28T04:20:44.258Z,984.31
2017-12-28T04:21:44.060Z,984.36
2017-12-28T04:22:44.168Z,984.32
2017-12-28T04:23:44.007Z,984.38
2017-12-28T04:24:43.998Z,984.40
2017-12-28T04:25:43.990Z,984.44
2017-12-28T04:26:43.988Z,984.48
2017-12-28T04:27:43.984Z,984.48
2017-12-28T04:28:44.002Z,984.59
2017-12-28T04:29:43.959Z,984.56
2017-12-28T04:30:43.951Z,984.66
2017-12-28T04:31:43.941Z,984.62
2017-12-28T04:32:43.926Z,984.63
2017-12-28T04:33:43.915Z,984.63
2017-12-28T04:34:44.143Z,984.68
2017-12-28T04:35:44.741Z,984.69
2017-12-28T04:36:43.900Z,984.74
2017-12-28T04:37:43.892Z,984.71
2017-12-28T04:38:43.882Z,984.88
2017-12-28T04:39:43.874Z,984.80
2017-12-28T04:40:43.866Z,984.88
2017-12-28T04:41:43.858Z,984.84
2017-12-28T04:42:43.849Z,984.89
2017-12-28T04:43:43.843Z,984.92
2017-12-28T04:44:43.834Z,984.94
2017-12-28T04:45:43.824Z,985.00
2017-12-28T04:46:43.815Z,985.01
2017-12-28T04:47:43.809Z,985.03
2017-12-28T04:48:43.801Z,985.06
2017-12-28T04:49:43.794Z,985.08
2017-12-28T04:50:43.805Z,985.15
2017-12-28T04:51:43.844Z,985.22
2017-12-28T04:52:43.770Z,985.21
2017-12-28T04:53:43.761Z,985.27
2017-12-28T04:54:43.752Z,985.28
2017-12-28T04:55:43.744Z,985.34
2017-12-28T04:56:43.736Z,985.32
2017-12-28T04:57:43.729Z,985.37
2017-12-28T04:58:43.993Z,985.36
2017-12-28T04:59:43.713Z,985.37
2017-12-28T05:00:43.704Z,985.33
2017-12-28T05:01:43.697Z,985.35
2017-12-28T05:02:43.687Z,985.36
2017-12-28T05:03:43.770Z,985.38
2017-12-28T05:04:43.689Z,985.37
2017-12-28T05:05:43.665Z,985.38
2017-12-28T05:06:43.655Z,985.40
2017-12-28T05:07:43.648Z,985.40
2017-12-28T05:08:43.640Z,985.47
2017-12-28T05:09:43.633Z,985.45
2017-12-28T05:10:43.624Z,985.44
2017-12-28T05:11:43.619Z,985.44
2017-12-28T05:12:43.608Z,985.51
2017-12-28T05:13:43.605Z,985.53
2017-12-28T05:14:43.592Z,985.57
2017-12-28T05:15:43.657Z,985.58
2017-12-28T05:16:43.690Z,985.57
2017-12-28T05:17:43.569Z,985.59
2017-12-28T05:18:43.559Z,985.64
2017-12-28T05:19:43.551Z,985.66
2017-12-28T05:20:43.543Z,985.68
2017-12-28T05:21:43.673Z,985.67
2017-12-28T05:22:43.526Z,985.73
2017-12-28T05:23:43.517Z,985.75
2017-12-28T05:24:43.509Z,985.75
2017-12-28T05:25:43.501Z,985.67
2017-12-28T05:26:43.494Z,985.81
2017-12-28T05:27:43.483Z,985.86
2017-12-28T05:28:43.471Z,985.83
2017-12-28T05:29:43.582Z,985.87
2017-12-28T05:30:43.484Z,985.84
2017-12-28T05:31:43.450Z,985.93
2017-12-28T05:32:43.442Z,985.97
2017-12-28T05:33:43.437Z,985.99
2017-12-28T05:34:43.424Z,986.00
2017-12-28T05:35:43.699Z,986.06
2017-12-28T05:36:43.465Z,986.11
2017-12-28T05:37:43.465Z,986.09
2017-12-28T05:38:43.392Z,986.11
2017-12-28T05:39:43.384Z,986.13
2017-12-28T05:40:43.373Z,986.15
2017-12-28T05:41:43.366Z,986.17
2017-12-28T05:42:43.357Z,986.17
2017-12-28T05:43:43.349Z,986.21
2017-12-28T05:44:43.409Z,986.20
2017-12-28T05:45:43.332Z,986.22
2017-12-28T05:46:43.324Z,986.23
2017-12-28T05:47:43.317Z,986.23
2017-12-28T05:48:43.308Z,986.24
2017-12-28T05:49:43.301Z,986.26
2017-12-28T05:50:43.295Z,986.27
2017-12-28T05:51:43.415Z,986.25
2017-12-28T05:52:43.346Z,986.25
2017-12-28T05:53:43.267Z,986.32
2017-12-28T05:54:43.258Z,986.31
2017-12-28T05:55:43.391Z,986.35
2017-12-28T05:56:43.246Z,986.40
2017-12-28T05:57:43.557Z,986.45
2017-12-28T05:58:43.226Z,986.48
2017-12-28T05:59:43.218Z,986.49
2017-12-28T06:00:43.210Z,986.48
2017-12-28T06:01:43.203Z,986.55
2017-12-28T06:02:43.192Z,986.55
2017-12-28T06:03:43.904Z,986.56
2017-12-28T06:04:43.433Z,986.57
2017-12-28T06:05:43.169Z,986.60
2017-12-28T06:06:43.158Z,986.62
2017-12-28T06:07:43.209Z,986.62
2017-12-28T06:08:43.145Z,986.58
2017-12-28T06:09:43.135Z,986.61
2017-12-28T06:10:43.127Z,986.68
2017-12-28T06:11:43.123Z,986.69
2017-12-28T06:12:43.165Z,986.63
2017-12-28T06:13:43.150Z,986.66
2017-12-28T06:14:43.094Z,986.64
2017-12-28T06:15:43.086Z,986.70
2017-12-28T06:16:43.158Z,986.70
2017-12-28T06:17:45.701Z,986.71
2017-12-28T06:18:43.169Z,986.71
2017-12-28T06:19:43.055Z,986.74
2017-12-28T06:20:43.042Z,986.73
2017-12-28T06:21:43.043Z,986.82
2017-12-28T06:22:43.027Z,986.80
2017-12-28T06:23:43.019Z,986.79
2017-12-28T06:24:43.597Z,986.85
2017-12-28T06:25:43.684Z,986.94
2017-12-28T06:26:42.994Z,986.96
2017-12-28T06:27:42.985Z,987.00
2017-12-28T06:28:43.042Z,986.98
2017-12-28T06:29:42.968Z,986.99
2017-12-28T06:30:42.967Z,987.02
2017-12-28T06:31:42.953Z,987.03
2017-12-28T06:32:42.946Z,987.04
2017-12-28T06:33:43.052Z,987.08
2017-12-28T06:34:42.919Z,987.07
2017-12-28T06:35:42.920Z,987.12
2017-12-28T06:36:42.992Z,987.05
2017-12-28T06:37:43.001Z,987.09
2017-12-28T06:38:42.903Z,987.08
2017-12-28T06:39:42.887Z,987.10
2017-12-28T06:40:42.878Z,987.11
2017-12-28T06:41:42.871Z,987.10
2017-12-28T06:42:43.300Z,987.13
2017-12-28T06:43:42.865Z,987.16
2017-12-28T06:44:44.990Z,987.21
2017-12-28T06:45:42.837Z,987.17
2017-12-28T06:46:42.828Z,987.17
2017-12-28T06:47:42.822Z,987.18
2017-12-28T06:48:42.813Z,987.21
2017-12-28T06:49:43.218Z,987.24
2017-12-28T06:50:42.891Z,987.25
2017-12-28T06:51:42.861Z,987.30
2017-12-28T06:52:42.782Z,987.26
2017-12-28T06:53:42.773Z,987.26
2017-12-28T06:54:42.764Z,987.27
2017-12-28T06:55:42.757Z,987.32
2017-12-28T06:56:42.748Z,987.31
2017-12-28T06:57:42.740Z,987.32
2017-12-28T06:58:42.721Z,987.36
2017-12-28T06:59:42.725Z,987.38
2017-12-28T07:00:42.716Z,987.37
2017-12-28T07:01:42.756Z,987.33
2017-12-28T07:02:42.753Z,987.38
2017-12-28T07:03:42.690Z,987.40
2017-12-28T07:04:42.683Z,987.38
2017-12-28T07:05:42.670Z,987.41
2017-12-28T07:06:42.668Z,987.43
2017-12-28T07:07:42.705Z,987.47
2017-12-28T07:08:42.650Z,987.47
2017-12-28T07:09:42.643Z,987.52
2017-12-28T07:10:42.635Z,987.49
2017-12-28T07:11:42.636Z,987.52
2017-12-28T07:12:42.618Z,987.51
2017-12-28T07:13:42.611Z,987.54
2017-12-28T07:14:42.602Z,987.57
2017-12-28T07:15:42.624Z,987.57
2017-12-28T07:16:42.740Z,987.58
2017-12-28T07:17:42.579Z,987.61
2017-12-28T07:18:42.569Z,987.62
2017-12-28T07:19:42.564Z,987.60
2017-12-28T07:20:42.631Z,987.68
2017-12-28T07:21:42.836Z,987.69
2017-12-28T07:22:42.539Z,987.68
2017-12-28T07:23:42.528Z,987.72
2017-12-28T07:24:42.520Z,987.72
2017-12-28T07:25:42.595Z,987.73
2017-12-28T07:26:42.505Z,987.74
2017-12-28T07:27:42.496Z,987.78
2017-12-28T07:28:42.489Z,987.80
2017-12-28T07:29:42.481Z,987.78
2017-12-28T07:30:42.473Z,987.79
2017-12-28T07:31:42.518Z,987.77
2017-12-28T07:32:42.456Z,987.83
2017-12-28T07:33:42.483Z,987.79
2017-12-28T07:34:42.449Z,987.85
2017-12-28T07:35:42.560Z,987.89
2017-12-28T07:36:42.424Z,987.87
2017-12-28T07:37:42.416Z,987.86
2017-12-28T07:38:42.408Z,987.88
2017-12-28T07:39:42.400Z,987.91
2017-12-28T07:40:42.392Z,987.90
2017-12-28T07:41:42.412Z,988.00
2017-12-28T07:42:42.572Z,988.00
2017-12-28T07:43:42.370Z,988.00
2017-12-28T07:44:42.412Z,987.96
2017-12-28T07:45:42.355Z,988.03
2017-12-28T07:46:42.445Z,988.04
2017-12-28T07:47:42.536Z,988.08
2017-12-28T07:48:44.202Z,988.07
2017-12-28T07:49:42.319Z,988.09
2017-12-28T07:50:42.312Z,988.12
2017-12-28T07:51:42.303Z,988.16
2017-12-28T07:52:42.295Z,988.15
2017-12-28T07:53:42.291Z,988.22
2017-12-28T07:54:42.280Z,988.23
2017-12-28T07:55:42.261Z,988.30
2017-12-28T07:56:42.284Z,988.30
2017-12-28T07:57:42.257Z,988.34
2017-12-28T07:58:42.248Z,988.35
2017-12-28T07:59:42.313Z,988.34
2017-12-28T08:00:42.246Z,988.33
2017-12-28T08:01:42.224Z,988.35
2017-12-28T08:02:42.217Z,988.39
2017-12-28T08:03:42.207Z,988.38
2017-12-28T08:04:42.200Z,988.40
2017-12-28T08:05:42.193Z,988.40
2017-12-28T08:06:42.322Z,988.36
2017-12-28T08:07:42.419Z,988.42
2017-12-28T08:08:42.170Z,988.38
2017-12-28T08:09:42.163Z,988.44
2017-12-28T08:10:42.174Z,988.39
2017-12-28T08:11:42.144Z,988.47
2017-12-28T08:12:42.182Z,988.44
2017-12-28T08:13:42.208Z,988.45
2017-12-28T08:14:42.121Z,988.45
2017-12-28T08:15:42.185Z,988.39
2017-12-28T08:16:42.106Z,988.46
2017-12-28T08:17:42.116Z,988.44
2017-12-28T08:18:42.140Z,988.47
2017-12-28T08:19:42.742Z,988.54
2017-12-28T08:20:42.100Z,988.48
2017-12-28T08:21:42.073Z,988.53
2017-12-28T08:22:42.058Z,988.54
2017-12-28T08:23:42.084Z,988.59
2017-12-28T08:24:42.042Z,988.60
2017-12-28T08:25:42.036Z,988.60
2017-12-28T08:26:42.027Z,988.67
2017-12-28T08:27:42.019Z,988.68
2017-12-28T08:28:42.011Z,988.69
2017-12-28T08:29:41.998Z,988.72
2017-12-28T08:30:41.994Z,988.72
2017-12-28T08:31:43.026Z,988.70
2017-12-28T08:32:41.979Z,988.71
2017-12-28T08:33:41.972Z,988.73
2017-12-28T08:34:41.964Z,988.78
2017-12-28T08:35:41.956Z,988.78
2017-12-28T08:36:41.948Z,988.81
2017-12-28T08:37:41.940Z,988.82
2017-12-28T08:38:41.931Z,988.81
2017-12-28T08:39:41.924Z,988.82
2017-12-28T08:40:41.948Z,988.85
2017-12-28T08:41:41.910Z,988.86
2017-12-28T08:42:41.900Z,988.90
2017-12-28T08:43:42.047Z,988.93
2017-12-28T08:44:41.884Z,988.95
2017-12-28T08:45:41.877Z,988.97
2017-12-28T08:46:41.870Z,988.97
2017-12-28T08:47:41.861Z,989.01
2017-12-28T08:48:41.905Z,989.04
2017-12-28T08:49:41.904Z,989.03
2017-12-28T08:50:41.839Z,989.00
2017-12-28T08:51:41.831Z,989.00
2017-12-28T08:52:41.823Z,989.07
2017-12-28T08:53:42.111Z,989.07
2017-12-28T08:54:41.808Z,989.13
2017-12-28T08:55:41.800Z,989.14
2017-12-28T08:56:41.858Z,989.12
2017-12-28T08:57:41.790Z,989.15
2017-12-28T08:58:41.779Z,989.17
2017-12-28T08:59:41.769Z,989.20
2017-12-28T09:00:41.762Z,989.21
2017-12-28T09:01:41.754Z,989.19
2017-12-28T09:02:41.750Z,989.21
2017-12-28T09:03:41.739Z,989.31
2017-12-28T09:04:41.732Z,989.34
2017-12-28T09:05:42.022Z,989.33
2017-12-28T09:06:41.730Z,989.34
2017-12-28T09:07:41.716Z,989.37
2017-12-28T09:08:41.701Z,989.41
2017-12-28T09:09:41.693Z,989.48
2017-12-28T09:10:41.744Z,989.52
2017-12-28T09:11:41.677Z,989.55
2017-12-28T09:12:41.672Z,989.54
2017-12-28T09:13:41.716Z,989.60
2017-12-28T09:14:41.657Z,989.68
2017-12-28T09:15:41.651Z,989.66
2017-12-28T09:16:41.639Z,989.70
2017-12-28T09:17:41.635Z,989.78
2017-12-28T09:18:41.623Z,989.80
2017-12-28T09:19:41.617Z,989.83
2017-12-28T09:20:41.612Z,989.88
2017-12-28T09:21:41.603Z,989.93
2017-12-28T09:22:41.592Z,989.97
2017-12-28T09:23:41.589Z,990.01
2017-12-28T09:24:41.579Z,989.99
2017-12-28T09:25:41.570Z,990.02
2017-12-28T09:26:41.602Z,990.03
2017-12-28T09:27:41.558Z,990.08
2017-12-28T09:28:41.548Z,990.07
2017-12-28T09:29:41.765Z,990.12
2017-12-28T09:30:41.532Z,990.13
2017-12-28T09:31:41.555Z,990.16
2017-12-28T09:32:41.517Z,990.11
2017-12-28T09:33:41.510Z,990.15
2017-12-28T09:34:41.510Z,990.14
2017-12-28T09:35:41.494Z,990.19
2017-12-28T09:36:41.487Z,990.20
2017-12-28T09:37:41.524Z,990.22
2017-12-28T09:38:41.474Z,990.28
2017-12-28T09:39:41.465Z,990.32
2017-12-28T09:40:41.456Z,990.29
2017-12-28T09:41:41.471Z,990.33
2017-12-28T09:42:41.447Z,990.34
2017-12-28T09:43:41.450Z,990.35
2017-12-28T09:44:41.423Z,990.34
2017-12-28T09:45:41.425Z,990.38
2017-12-28T09:46:41.410Z,990.41
2017-12-28T09:47:41.402Z,990.39
2017-12-28T09:48:41.418Z,990.40
2017-12-28T09:49:41.392Z,990.41
2017-12-28T09:50:41.387Z,990.44
2017-12-28T09:51:41.372Z,990.45
2017-12-28T09:52:41.365Z,990.44
2017-12-28T09:53:41.385Z,990.43
2017-12-28T09:54:41.342Z,990.49
2017-12-28T09:55:41.403Z,990.50
2017-12-28T09:56:41.346Z,990.50
2017-12-28T09:57:41.326Z,990.53
2017-12-28T09:58:41.317Z,990.57
2017-12-28T09:59:41.309Z,990.56
2017-12-28T10:00:41.300Z,990.55
2017-12-28T10:01:41.298Z,990.53
2017-12-28T10:02:41.286Z,990.55
2017-12-28T10:03:41.282Z,990.58
2017-12-28T10:04:41.266Z,990.56
2017-12-28T10:05:41.263Z,990.61
2017-12-28T10:06:41.245Z,990.63
2017-12-28T10:07:41.249Z,990.66
2017-12-28T10:08:41.247Z,990.69
2017-12-28T10:09:41.233Z,990.68
2017-12-28T10:10:41.228Z,990.76
2017-12-28T10:11:41.221Z,990.70
2017-12-28T10:12:41.212Z,990.70
2017-12-28T10:13:41.204Z,990.72
2017-12-28T10:14:41.195Z,990.82
2017-12-28T10:15:41.188Z,990.80
2017-12-28T10:16:41.180Z,990.79
2017-12-28T10:17:41.175Z,990.78
2017-12-28T10:18:41.185Z,990.80
2017-12-28T10:19:41.158Z,990.80
2017-12-28T10:20:41.154Z,990.83
2017-12-28T10:21:41.143Z,990.82
2017-12-28T10:22:41.138Z,990.84
2017-12-28T10:23:41.131Z,990.82
2017-12-28T10:24:41.132Z,990.79
2017-12-28T10:25:41.135Z,990.84
2017-12-28T10:26:41.105Z,990.85
2017-12-28T10:27:41.097Z,990.86
2017-12-28T10:28:41.090Z,990.89
2017-12-28T10:29:41.174Z,990.87
2017-12-28T10:30:41.079Z,990.90
2017-12-28T10:31:41.066Z,990.90
2017-12-28T10:32:41.058Z,990.93
2017-12-28T10:33:41.053Z,990.90
2017-12-28T10:34:41.045Z,990.89
2017-12-28T10:35:41.287Z,990.94
2017-12-28T10:36:41.494Z,990.91
2017-12-28T10:37:41.024Z,990.96
2017-12-28T10:38:41.017Z,990.98
2017-12-28T10:39:41.007Z,991.01
2017-12-28T10:40:41.000Z,991.04
2017-12-28T10:41:41.018Z,991.04
2017-12-28T10:42:40.984Z,991.07
2017-12-28T10:43:40.979Z,991.06
2017-12-28T10:44:40.970Z,991.09
2017-12-28T10:45:40.962Z,991.09
2017-12-28T10:46:40.956Z,991.13
2017-12-28T10:47:40.948Z,991.13
2017-12-28T10:48:40.986Z,991.13
2017-12-28T10:49:40.935Z,991.18
2017-12-28T10:50:40.926Z,991.14
2017-12-28T10:51:40.918Z,991.22
2017-12-28T10:52:40.953Z,991.20
2017-12-28T10:53:40.905Z,991.16
2017-12-28T10:54:40.896Z,991.14
2017-12-28T10:55:40.888Z,991.14
2017-12-28T10:56:40.881Z,991.16
2017-12-28T10:57:40.872Z,991.21
2017-12-28T10:58:40.917Z,991.19
2017-12-28T10:59:41.147Z,991.19
2017-12-28T11:00:40.850Z,991.20
2017-12-28T11:01:40.843Z,991.23
2017-12-28T11:02:40.833Z,991.23
2017-12-28T11:03:40.827Z,991.23
2017-12-28T11:04:40.891Z,991.28
2017-12-28T11:05:41.111Z,991.34
2017-12-28T11:06:40.803Z,991.31
2017-12-28T11:07:40.796Z,991.35
2017-12-28T11:08:40.789Z,991.38
2017-12-28T11:09:40.782Z,991.42
2017-12-28T11:10:40.776Z,991.42
2017-12-28T11:11:40.765Z,991.42
2017-12-28T11:12:41.022Z,991.45
2017-12-28T11:13:44.839Z,991.50
2017-12-28T11:14:40.744Z,991.54
2017-12-28T11:15:42.588Z,991.53
2017-12-28T11:16:40.848Z,991.52
2017-12-28T11:17:41.154Z,991.58
2017-12-28T11:18:40.712Z,991.55
2017-12-28T11:19:40.704Z,991.59
2017-12-28T11:20:40.697Z,991.63
2017-12-28T11:21:40.688Z,991.64
2017-12-28T11:22:40.767Z,991.63
2017-12-28T11:23:40.849Z,991.65
2017-12-28T11:24:40.665Z,991.71
2017-12-28T11:25:40.657Z,991.58
2017-12-28T11:26:40.648Z,991.66
2017-12-28T11:27:40.676Z,991.63
2017-12-28T11:28:40.631Z,991.67
2017-12-28T11:29:40.624Z,991.71
2017-12-28T11:30:40.615Z,991.68
2017-12-28T11:31:41.132Z,991.64
2017-12-28T11:32:40.602Z,991.70
2017-12-28T11:33:40.594Z,991.65
2017-12-28T11:34:40.584Z,991.74
2017-12-28T11:35:40.612Z,991.72
2017-12-28T11:36:41.250Z,991.75
2017-12-28T11:37:40.560Z,991.76
2017-12-28T11:38:40.552Z,991.71
2017-12-28T11:39:40.545Z,991.77
2017-12-28T11:40:40.538Z,991.79
2017-12-28T11:41:40.529Z,991.82
2017-12-28T11:42:40.529Z,991.86
2017-12-28T11:43:40.514Z,991.79
2017-12-28T11:44:40.506Z,991.76
2017-12-28T11:45:40.502Z,991.76
2017-12-28T11:46:40.491Z,991.78
2017-12-28T11:47:40.482Z,991.78
2017-12-28T11:48:40.475Z,991.80
2017-12-28T11:49:40.467Z,991.80
2017-12-28T11:50:40.505Z,991.84
2017-12-28T11:51:40.486Z,991.82
2017-12-28T11:52:40.443Z,991.84
2017-12-28T11:53:40.434Z,991.83
2017-12-28T11:54:40.429Z,991.81
2017-12-28T11:55:40.417Z,991.81
2017-12-28T11:56:40.413Z,991.76
2017-12-28T11:57:40.405Z,991.83
2017-12-28T11:58:40.466Z,991.78
2017-12-28T11:59:40.388Z,991.83
2017-12-28T12:00:40.382Z,991.82
2017-12-28T12:01:40.375Z,991.88
2017-12-28T12:02:40.622Z,991.88
2017-12-28T12:03:40.358Z,991.89
2017-12-28T12:04:40.376Z,991.88
2017-12-28T12:05:40.345Z,991.90
2017-12-28T12:06:40.336Z,991.91
2017-12-28T12:07:40.332Z,991.95
2017-12-28T12:08:40.314Z,991.94
2017-12-28T12:09:40.314Z,991.95
2017-12-28T12:10:40.306Z,991.99
2017-12-28T12:11:40.298Z,991.91
2017-12-28T12:12:40.291Z,991.96
2017-12-28T12:13:40.274Z,991.94
2017-12-28T12:14:41.805Z,991.99
2017-12-28T12:15:40.270Z,991.91
2017-12-28T12:16:40.262Z,991.90
2017-12-28T12:17:40.255Z,991.97
2017-12-28T12:18:40.235Z,991.97
2017-12-28T12:19:40.239Z,992.02
2017-12-28T12:20:40.232Z,991.98
2017-12-28T12:21:40.225Z,991.94
2017-12-28T12:22:40.215Z,991.96
2017-12-28T12:23:40.208Z,991.94
2017-12-28T12:24:40.249Z,991.93
2017-12-28T12:25:40.200Z,992.02
2017-12-28T12:26:40.194Z,992.00
2017-12-28T12:27:40.179Z,992.03
2017-12-28T12:28:40.173Z,992.03